sensor_id;sensor_type;location;lat;lon;timestamp;P1;durP1;ratioP1;P2;durP2;ratioP2
30010;SDS011;16851;53.564;8.112;2022-12-29T00:01:38;11.83;;;8.67;;
30010;SDS011;16851;53.564;8.112;2022-12-29T00:06:42;8.77;;;7.40;;
30010;SDS011;16851;53.564;8.112;2022-12-29T00:11:49;9.27;;;7.03;;
30010;SDS011;16851;53.564;8.112;2022-12-29T00:16:54;6.73;;;5.20;;
30010;SDS011;16851;53.564;8.112;2022-12-29T00:21:56;7.43;;;6.50;;
30010;SDS011;16851;53.564;8.112;2022-12-29T00:27:21;7.93;;;6.60;;
30010;SDS011;16851;53.564;8.112;2022-12-29T00:32:41;6.53;;;5.17;;
30010;SDS011;16851;53.564;8.112;2022-12-29T00:38:03;6.97;;;4.77;;
30010;SDS011;16851;53.564;8.112;2022-12-29T00:43:26;6.50;;;5.53;;
30010;SDS011;16851;53.564;8.112;2022-12-29T00:48:48;6.17;;;5.00;;
30010;SDS011;16851;53.564;8.112;2022-12-29T00:54:11;5.50;;;4.63;;
30010;SDS011;16851;53.564;8.112;2022-12-29T00:59:14;6.00;;;4.57;;
30010;SDS011;16851;53.564;8.112;2022-12-29T01:04:23;6.47;;;4.47;;
30010;SDS011;16851;53.564;8.112;2022-12-29T01:09:28;7.67;;;4.37;;
30010;SDS011;16851;53.564;8.112;2022-12-29T01:14:51;7.20;;;5.77;;
30010;SDS011;16851;53.564;8.112;2022-12-29T01:19:56;6.83;;;6.13;;
30010;SDS011;16851;53.564;8.112;2022-12-29T01:25:00;9.73;;;6.27;;
30010;SDS011;16851;53.564;8.112;2022-12-29T01:30:02;7.50;;;6.43;;
30010;SDS011;16851;53.564;8.112;2022-12-29T01:35:09;6.73;;;6.07;;
30010;SDS011;16851;53.564;8.112;2022-12-29T01:40:14;6.30;;;4.93;;
30010;SDS011;16851;53.564;8.112;2022-12-29T01:45:21;7.13;;;5.47;;
30010;SDS011;16851;53.564;8.112;2022-12-29T01:50:29;5.43;;;4.63;;
30010;SDS011;16851;53.564;8.112;2022-12-29T01:55:33;6.33;;;5.67;;
30010;SDS011;16851;53.564;8.112;2022-12-29T02:00:37;6.90;;;5.10;;
30010;SDS011;16851;53.564;8.112;2022-12-29T02:11:15;5.73;;;4.60;;
30010;SDS011;16851;53.564;8.112;2022-12-29T02:53:33;3.97;;;3.10;;
30010;SDS011;16851;53.564;8.112;2022-12-29T02:58:54;4.10;;;3.10;;
30010;SDS011;16851;53.564;8.112;2022-12-29T03:09:35;3.93;;;2.70;;
30010;SDS011;16851;53.564;8.112;2022-12-29T03:15:02;4.70;;;2.80;;
30010;SDS011;16851;53.564;8.112;2022-12-29T03:20:32;3.20;;;2.57;;
30010;SDS011;16851;53.564;8.112;2022-12-29T03:25:44;3.47;;;2.40;;
30010;SDS011;16851;53.564;8.112;2022-12-29T03:30:55;4.17;;;2.60;;
30010;SDS011;16851;53.564;8.112;2022-12-29T03:36:01;3.77;;;2.00;;
30010;SDS011;16851;53.564;8.112;2022-12-29T03:41:07;4.17;;;2.00;;
30010;SDS011;16851;53.564;8.112;2022-12-29T03:46:15;3.30;;;2.17;;
30010;SDS011;16851;53.564;8.112;2022-12-29T03:51:17;3.63;;;2.10;;
30010;SDS011;16851;53.564;8.112;2022-12-29T03:56:22;2.80;;;2.17;;
30010;SDS011;16851;53.564;8.112;2022-12-29T04:01:27;2.77;;;2.20;;
30010;SDS011;16851;53.564;8.112;2022-12-29T04:06:29;3.20;;;1.37;;
30010;SDS011;16851;53.564;8.112;2022-12-29T04:11:35;2.27;;;1.50;;
30010;SDS011;16851;53.564;8.112;2022-12-29T04:16:42;3.20;;;1.80;;
30010;SDS011;16851;53.564;8.112;2022-12-29T04:21:47;2.40;;;1.47;;
30010;SDS011;16851;53.564;8.112;2022-12-29T04:26:49;5.37;;;1.30;;
30010;SDS011;16851;53.564;8.112;2022-12-29T04:32:02;1.40;;;0.83;;
30010;SDS011;16851;53.564;8.112;2022-12-29T04:37:06;2.23;;;1.07;;
30010;SDS011;16851;53.564;8.112;2022-12-29T04:42:13;1.87;;;1.10;;
30010;SDS011;16851;53.564;8.112;2022-12-29T04:47:20;1.10;;;0.90;;
30010;SDS011;16851;53.564;8.112;2022-12-29T04:52:54;4.03;;;1.60;;
30010;SDS011;16851;53.564;8.112;2022-12-29T04:57:58;3.10;;;1.37;;
30010;SDS011;16851;53.564;8.112;2022-12-29T05:03:02;1.60;;;1.03;;
30010;SDS011;16851;53.564;8.112;2022-12-29T05:08:07;2.80;;;0.93;;
30010;SDS011;16851;53.564;8.112;2022-12-29T05:13:11;2.37;;;1.33;;
30010;SDS011;16851;53.564;8.112;2022-12-29T05:18:13;4.03;;;1.20;;
30010;SDS011;16851;53.564;8.112;2022-12-29T05:23:20;4.43;;;1.13;;
30010;SDS011;16851;53.564;8.112;2022-12-29T05:28:33;4.23;;;1.20;;
30010;SDS011;16851;53.564;8.112;2022-12-29T05:33:41;3.37;;;0.80;;
30010;SDS011;16851;53.564;8.112;2022-12-29T05:38:44;2.50;;;0.90;;
30010;SDS011;16851;53.564;8.112;2022-12-29T05:43:51;2.60;;;0.83;;
30010;SDS011;16851;53.564;8.112;2022-12-29T05:49:01;3.13;;;1.03;;
30010;SDS011;16851;53.564;8.112;2022-12-29T05:54:20;2.90;;;1.17;;
30010;SDS011;16851;53.564;8.112;2022-12-29T05:59:25;5.03;;;0.90;;
30010;SDS011;16851;53.564;8.112;2022-12-29T06:04:30;1.53;;;0.70;;
30010;SDS011;16851;53.564;8.112;2022-12-29T06:09:33;2.40;;;0.80;;
30010;SDS011;16851;53.564;8.112;2022-12-29T06:14:37;4.07;;;0.70;;
30010;SDS011;16851;53.564;8.112;2022-12-29T06:19:42;4.20;;;1.10;;
30010;SDS011;16851;53.564;8.112;2022-12-29T06:24:47;6.33;;;1.40;;
30010;SDS011;16851;53.564;8.112;2022-12-29T06:29:49;3.13;;;0.83;;
30010;SDS011;16851;53.564;8.112;2022-12-29T06:34:51;5.00;;;1.10;;
30010;SDS011;16851;53.564;8.112;2022-12-29T06:39:55;5.53;;;1.37;;
30010;SDS011;16851;53.564;8.112;2022-12-29T06:45:02;7.13;;;1.60;;
30010;SDS011;16851;53.564;8.112;2022-12-29T06:50:04;4.93;;;1.50;;
30010;SDS011;16851;53.564;8.112;2022-12-29T06:55:09;6.90;;;1.47;;
30010;SDS011;16851;53.564;8.112;2022-12-29T07:00:11;7.63;;;1.63;;
30010;SDS011;16851;53.564;8.112;2022-12-29T07:05:23;7.00;;;1.50;;
30010;SDS011;16851;53.564;8.112;2022-12-29T07:10:29;8.63;;;1.80;;
30010;SDS011;16851;53.564;8.112;2022-12-29T07:15:30;7.13;;;1.67;;
30010;SDS011;16851;53.564;8.112;2022-12-29T07:20:34;9.40;;;1.83;;
30010;SDS011;16851;53.564;8.112;2022-12-29T07:25:43;11.60;;;1.47;;
30010;SDS011;16851;53.564;8.112;2022-12-29T07:30:45;7.97;;;1.67;;
30010;SDS011;16851;53.564;8.112;2022-12-29T07:35:47;5.97;;;1.97;;
30010;SDS011;16851;53.564;8.112;2022-12-29T07:40:51;6.53;;;1.70;;
30010;SDS011;16851;53.564;8.112;2022-12-29T07:46:05;5.63;;;1.30;;
30010;SDS011;16851;53.564;8.112;2022-12-29T07:51:31;9.40;;;2.37;;
30010;SDS011;16851;53.564;8.112;2022-12-29T07:56:33;9.80;;;2.03;;
30010;SDS011;16851;53.564;8.112;2022-12-29T08:01:39;11.70;;;1.73;;
30010;SDS011;16851;53.564;8.112;2022-12-29T08:06:49;10.10;;;1.20;;
30010;SDS011;16851;53.564;8.112;2022-12-29T08:11:59;8.80;;;1.97;;
30010;SDS011;16851;53.564;8.112;2022-12-29T08:17:02;10.87;;;1.77;;
30010;SDS011;16851;53.564;8.112;2022-12-29T08:22:04;8.70;;;1.70;;
30010;SDS011;16851;53.564;8.112;2022-12-29T08:27:07;5.40;;;1.40;;
30010;SDS011;16851;53.564;8.112;2022-12-29T08:32:21;13.73;;;2.47;;
30010;SDS011;16851;53.564;8.112;2022-12-29T08:37:23;13.17;;;2.40;;
30010;SDS011;16851;53.564;8.112;2022-12-29T08:42:31;9.43;;;2.40;;
30010;SDS011;16851;53.564;8.112;2022-12-29T08:47:33;7.10;;;1.63;;
30010;SDS011;16851;53.564;8.112;2022-12-29T08:52:35;10.77;;;2.20;;
30010;SDS011;16851;53.564;8.112;2022-12-29T08:57:37;7.70;;;1.80;;
30010;SDS011;16851;53.564;8.112;2022-12-29T09:02:48;11.73;;;2.13;;
30010;SDS011;16851;53.564;8.112;2022-12-29T09:07:53;8.97;;;1.47;;
30010;SDS011;16851;53.564;8.112;2022-12-29T09:12:56;11.00;;;1.90;;
30010;SDS011;16851;53.564;8.112;2022-12-29T09:17:58;16.37;;;2.30;;
30010;SDS011;16851;53.564;8.112;2022-12-29T09:23:00;8.03;;;1.83;;
30010;SDS011;16851;53.564;8.112;2022-12-29T09:28:02;7.93;;;1.50;;
30010;SDS011;16851;53.564;8.112;2022-12-29T09:33:09;15.73;;;2.30;;
30010;SDS011;16851;53.564;8.112;2022-12-29T09:38:13;11.97;;;2.20;;
30010;SDS011;16851;53.564;8.112;2022-12-29T09:48:35;10.10;;;2.63;;
30010;SDS011;16851;53.564;8.112;2022-12-29T10:04:08;12.60;;;2.67;;
30010;SDS011;16851;53.564;8.112;2022-12-29T10:25:12;10.47;;;1.90;;
30010;SDS011;16851;53.564;8.112;2022-12-29T10:30:17;11.80;;;1.97;;
30010;SDS011;16851;53.564;8.112;2022-12-29T10:35:28;5.30;;;1.47;;
30010;SDS011;16851;53.564;8.112;2022-12-29T10:45:48;10.57;;;2.57;;
30010;SDS011;16851;53.564;8.112;2022-12-29T10:50:50;12.80;;;2.10;;
30010;SDS011;16851;53.564;8.112;2022-12-29T10:56:03;10.33;;;2.17;;
30010;SDS011;16851;53.564;8.112;2022-12-29T11:01:13;12.87;;;2.80;;
30010;SDS011;16851;53.564;8.112;2022-12-29T11:06:21;11.33;;;1.90;;
30010;SDS011;16851;53.564;8.112;2022-12-29T11:11:32;8.93;;;1.90;;
30010;SDS011;16851;53.564;8.112;2022-12-29T11:16:38;10.13;;;2.27;;
30010;SDS011;16851;53.564;8.112;2022-12-29T11:21:43;12.40;;;2.30;;
30010;SDS011;16851;53.564;8.112;2022-12-29T11:26:51;12.47;;;1.93;;
30010;SDS011;16851;53.564;8.112;2022-12-29T11:32:10;5.10;;;1.17;;
30010;SDS011;16851;53.564;8.112;2022-12-29T11:37:38;11.73;;;2.17;;
30010;SDS011;16851;53.564;8.112;2022-12-29T11:42:53;10.53;;;2.00;;
30010;SDS011;16851;53.564;8.112;2022-12-29T11:47:58;6.60;;;1.73;;
30010;SDS011;16851;53.564;8.112;2022-12-29T11:53:21;13.90;;;1.90;;
30010;SDS011;16851;53.564;8.112;2022-12-29T11:58:30;4.70;;;1.90;;
30010;SDS011;16851;53.564;8.112;2022-12-29T12:03:36;12.53;;;1.87;;
30010;SDS011;16851;53.564;8.112;2022-12-29T12:08:43;10.97;;;1.90;;
30010;SDS011;16851;53.564;8.112;2022-12-29T12:19:09;9.50;;;1.80;;
30010;SDS011;16851;53.564;8.112;2022-12-29T12:30:04;14.33;;;2.83;;
30010;SDS011;16851;53.564;8.112;2022-12-29T12:35:19;9.10;;;1.90;;
30010;SDS011;16851;53.564;8.112;2022-12-29T13:02:17;14.00;;;2.17;;
30010;SDS011;16851;53.564;8.112;2022-12-29T13:17:57;15.33;;;3.07;;
30010;SDS011;16851;53.564;8.112;2022-12-29T13:28:45;22.73;;;3.77;;
30010;SDS011;16851;53.564;8.112;2022-12-29T13:49:42;17.57;;;2.67;;
30010;SDS011;16851;53.564;8.112;2022-12-29T13:55:32;18.17;;;3.43;;
30010;SDS011;16851;53.564;8.112;2022-12-29T14:00:17;14.73;;;3.00;;
30010;SDS011;16851;53.564;8.112;2022-12-29T14:10:31;19.37;;;2.37;;
30010;SDS011;16851;53.564;8.112;2022-12-29T14:15:40;15.93;;;3.10;;
30010;SDS011;16851;53.564;8.112;2022-12-29T14:36:20;11.97;;;2.73;;
30010;SDS011;16851;53.564;8.112;2022-12-29T14:41:38;11.90;;;2.20;;
30010;SDS011;16851;53.564;8.112;2022-12-29T14:46:43;14.33;;;2.80;;
30010;SDS011;16851;53.564;8.112;2022-12-29T14:51:50;18.47;;;2.90;;
30010;SDS011;16851;53.564;8.112;2022-12-29T14:56:56;14.10;;;2.60;;
30010;SDS011;16851;53.564;8.112;2022-12-29T15:02:12;11.10;;;2.63;;
30010;SDS011;16851;53.564;8.112;2022-12-29T15:07:18;11.90;;;2.70;;
30010;SDS011;16851;53.564;8.112;2022-12-29T15:12:22;17.67;;;2.90;;
30010;SDS011;16851;53.564;8.112;2022-12-29T15:17:42;15.60;;;2.53;;
30010;SDS011;16851;53.564;8.112;2022-12-29T15:22:44;10.40;;;2.33;;
30010;SDS011;16851;53.564;8.112;2022-12-29T15:27:57;16.90;;;3.10;;
30010;SDS011;16851;53.564;8.112;2022-12-29T15:33:16;15.20;;;3.20;;
30010;SDS011;16851;53.564;8.112;2022-12-29T15:38:27;17.47;;;2.67;;
30010;SDS011;16851;53.564;8.112;2022-12-29T15:49:12;13.07;;;3.00;;
30010;SDS011;16851;53.564;8.112;2022-12-29T15:54:21;15.30;;;2.60;;
30010;SDS011;16851;53.564;8.112;2022-12-29T15:59:32;19.00;;;3.10;;
30010;SDS011;16851;53.564;8.112;2022-12-29T16:04:36;17.80;;;3.27;;
30010;SDS011;16851;53.564;8.112;2022-12-29T16:10:00;17.50;;;3.70;;
30010;SDS011;16851;53.564;8.112;2022-12-29T16:15:04;15.60;;;3.07;;
30010;SDS011;16851;53.564;8.112;2022-12-29T16:20:18;21.90;;;3.90;;
30010;SDS011;16851;53.564;8.112;2022-12-29T16:30:30;17.70;;;3.70;;
30010;SDS011;16851;53.564;8.112;2022-12-29T16:40:51;17.03;;;3.47;;
30010;SDS011;16851;53.564;8.112;2022-12-29T16:46:16;16.53;;;4.07;;
30010;SDS011;16851;53.564;8.112;2022-12-29T16:51:37;16.63;;;3.50;;
30010;SDS011;16851;53.564;8.112;2022-12-29T16:56:47;20.27;;;3.40;;
30010;SDS011;16851;53.564;8.112;2022-12-29T17:01:51;14.50;;;2.57;;
30010;SDS011;16851;53.564;8.112;2022-12-29T17:06:53;14.00;;;2.67;;
30010;SDS011;16851;53.564;8.112;2022-12-29T17:11:56;15.30;;;2.17;;
30010;SDS011;16851;53.564;8.112;2022-12-29T17:17:18;16.93;;;2.70;;
30010;SDS011;16851;53.564;8.112;2022-12-29T17:22:26;13.33;;;2.97;;
30010;SDS011;16851;53.564;8.112;2022-12-29T17:27:33;10.83;;;1.87;;
30010;SDS011;16851;53.564;8.112;2022-12-29T17:32:42;23.03;;;3.60;;
30010;SDS011;16851;53.564;8.112;2022-12-29T17:37:52;17.53;;;3.13;;
30010;SDS011;16851;53.564;8.112;2022-12-29T17:42:55;15.97;;;2.80;;
30010;SDS011;16851;53.564;8.112;2022-12-29T17:47:58;15.20;;;2.97;;
30010;SDS011;16851;53.564;8.112;2022-12-29T17:53:05;14.40;;;2.80;;
30010;SDS011;16851;53.564;8.112;2022-12-29T18:03:30;9.77;;;2.00;;
30010;SDS011;16851;53.564;8.112;2022-12-29T18:08:36;20.30;;;2.50;;
30010;SDS011;16851;53.564;8.112;2022-12-29T18:13:39;4.17;;;1.27;;
30010;SDS011;16851;53.564;8.112;2022-12-29T18:18:47;4.23;;;1.33;;
30010;SDS011;16851;53.564;8.112;2022-12-29T18:23:51;4.30;;;1.90;;
30010;SDS011;16851;53.564;8.112;2022-12-29T18:28:57;5.07;;;1.50;;
30010;SDS011;16851;53.564;8.112;2022-12-29T18:34:05;5.60;;;1.40;;
30010;SDS011;16851;53.564;8.112;2022-12-29T18:39:12;3.70;;;1.63;;
30010;SDS011;16851;53.564;8.112;2022-12-29T18:44:15;6.70;;;1.80;;
30010;SDS011;16851;53.564;8.112;2022-12-29T18:49:17;5.70;;;2.30;;
30010;SDS011;16851;53.564;8.112;2022-12-29T18:54:26;8.37;;;2.33;;
30010;SDS011;16851;53.564;8.112;2022-12-29T18:59:36;11.27;;;3.23;;
30010;SDS011;16851;53.564;8.112;2022-12-29T19:04:43;7.77;;;2.97;;
30010;SDS011;16851;53.564;8.112;2022-12-29T19:09:52;8.13;;;3.77;;
30010;SDS011;16851;53.564;8.112;2022-12-29T19:14:56;8.63;;;3.00;;
30010;SDS011;16851;53.564;8.112;2022-12-29T19:20:02;10.77;;;2.67;;
30010;SDS011;16851;53.564;8.112;2022-12-29T19:25:08;11.70;;;2.80;;
30010;SDS011;16851;53.564;8.112;2022-12-29T19:30:13;16.97;;;2.60;;
30010;SDS011;16851;53.564;8.112;2022-12-29T19:35:15;14.03;;;3.60;;
30010;SDS011;16851;53.564;8.112;2022-12-29T19:40:20;12.83;;;3.40;;
30010;SDS011;16851;53.564;8.112;2022-12-29T19:45:25;16.77;;;3.47;;
30010;SDS011;16851;53.564;8.112;2022-12-29T19:50:30;14.23;;;3.20;;
30010;SDS011;16851;53.564;8.112;2022-12-29T19:55:36;14.93;;;3.60;;
30010;SDS011;16851;53.564;8.112;2022-12-29T20:00:44;18.63;;;4.07;;
30010;SDS011;16851;53.564;8.112;2022-12-29T20:05:50;15.40;;;3.90;;
30010;SDS011;16851;53.564;8.112;2022-12-29T20:10:57;13.73;;;3.73;;
30010;SDS011;16851;53.564;8.112;2022-12-29T20:16:08;23.03;;;3.97;;
30010;SDS011;16851;53.564;8.112;2022-12-29T20:21:14;10.67;;;3.00;;
30010;SDS011;16851;53.564;8.112;2022-12-29T20:26:20;16.70;;;5.00;;
30010;SDS011;16851;53.564;8.112;2022-12-29T20:31:27;16.50;;;4.07;;
30010;SDS011;16851;53.564;8.112;2022-12-29T20:36:32;14.83;;;3.63;;
30010;SDS011;16851;53.564;8.112;2022-12-29T20:41:44;19.20;;;3.83;;
30010;SDS011;16851;53.564;8.112;2022-12-29T20:46:47;20.67;;;4.50;;
30010;SDS011;16851;53.564;8.112;2022-12-29T20:51:51;21.70;;;3.63;;
30010;SDS011;16851;53.564;8.112;2022-12-29T20:57:07;19.70;;;4.43;;
30010;SDS011;16851;53.564;8.112;2022-12-29T21:02:18;17.27;;;3.60;;
30010;SDS011;16851;53.564;8.112;2022-12-29T21:07:24;23.73;;;5.50;;
30010;SDS011;16851;53.564;8.112;2022-12-29T21:12:28;22.20;;;4.67;;
30010;SDS011;16851;53.564;8.112;2022-12-29T21:17:32;13.73;;;3.53;;
30010;SDS011;16851;53.564;8.112;2022-12-29T21:22:36;9.37;;;3.00;;
30010;SDS011;16851;53.564;8.112;2022-12-29T21:27:40;19.00;;;5.07;;
30010;SDS011;16851;53.564;8.112;2022-12-29T21:32:45;24.93;;;3.87;;
30010;SDS011;16851;53.564;8.112;2022-12-29T21:37:54;16.53;;;4.13;;
30010;SDS011;16851;53.564;8.112;2022-12-29T21:42:59;16.90;;;5.23;;
30010;SDS011;16851;53.564;8.112;2022-12-29T21:48:04;27.27;;;5.03;;
30010;SDS011;16851;53.564;8.112;2022-12-29T21:53:23;17.03;;;4.20;;
30010;SDS011;16851;53.564;8.112;2022-12-29T21:58:38;20.63;;;4.30;;
30010;SDS011;16851;53.564;8.112;2022-12-29T22:03:59;25.23;;;5.23;;
30010;SDS011;16851;53.564;8.112;2022-12-29T22:09:20;15.73;;;3.70;;
30010;SDS011;16851;53.564;8.112;2022-12-29T22:14:49;20.00;;;3.93;;
30010;SDS011;16851;53.564;8.112;2022-12-29T22:19:50;11.80;;;2.87;;
30010;SDS011;16851;53.564;8.112;2022-12-29T22:24:56;20.80;;;4.17;;
30010;SDS011;16851;53.564;8.112;2022-12-29T22:30:03;24.47;;;3.93;;
30010;SDS011;16851;53.564;8.112;2022-12-29T22:35:06;16.83;;;4.00;;
30010;SDS011;16851;53.564;8.112;2022-12-29T22:40:11;23.33;;;4.23;;
30010;SDS011;16851;53.564;8.112;2022-12-29T22:45:13;16.40;;;3.40;;
30010;SDS011;16851;53.564;8.112;2022-12-29T22:50:15;27.87;;;4.43;;
30010;SDS011;16851;53.564;8.112;2022-12-29T22:55:24;23.57;;;5.07;;
30010;SDS011;16851;53.564;8.112;2022-12-29T23:00:31;27.57;;;6.20;;
30010;SDS011;16851;53.564;8.112;2022-12-29T23:05:35;19.10;;;4.80;;
30010;SDS011;16851;53.564;8.112;2022-12-29T23:10:37;32.20;;;7.60;;
30010;SDS011;16851;53.564;8.112;2022-12-29T23:15:41;27.57;;;4.30;;
30010;SDS011;16851;53.564;8.112;2022-12-29T23:20:50;19.10;;;3.90;;
30010;SDS011;16851;53.564;8.112;2022-12-29T23:25:52;15.63;;;3.77;;
30010;SDS011;16851;53.564;8.112;2022-12-29T23:30:59;17.93;;;3.90;;
30010;SDS011;16851;53.564;8.112;2022-12-29T23:36:02;18.57;;;3.63;;
30010;SDS011;16851;53.564;8.112;2022-12-29T23:41:04;21.67;;;4.23;;
30010;SDS011;16851;53.564;8.112;2022-12-29T23:46:12;18.83;;;4.13;;
30010;SDS011;16851;53.564;8.112;2022-12-29T23:51:18;17.73;;;3.30;;
30010;SDS011;16851;53.564;8.112;2022-12-29T23:56:20;29.17;;;3.60;;
